Portada
METAR-TAF:

METAR-TAF

Aeropuertos :

Castellón de la Plana, España

Aeropuerto de Castellón-Costa Azahar

latitud: 40-12-35N, longitud: 0-04-11E, altitud: 360 m

Observación

El informe se hizo hace 18 minutos, a las 08:00 UTC
Viento 3 kt del sur, variando entre sur-sureste y suroeste
Temperatura 10°C
Humedad 93%
Presión 1026 hPa
Visibilidad: 9000 m

METAR: LECH 280800Z AUTO 19003KT 150V230 9000 NCD 10/09 Q1026

Hora: 10:18 (08:18 UTC)


TAF: falta

Observaciones y pronósticos meteorológicos de más de 4000 aeropuertos (mensajes METAR y TAF).

Los puntos amarillos y rojos representan las estaciones disponibles.

Ponga el ratón en el punto deseado para ver el nombre de la estación.

Haga clic para ver las observaciones y los pronósticos meteorológicos.

Para cambiar el mapa : haga clic en los botones verdes con una cruz de color negro para hacer un zoom, en el botón verde con un guión para alejar o en las flechas verdes para mapas adyacentes.


METAR-TAF: